sensor_id;sensor_type;location;lat;lon;timestamp;pressure;altitude;pressure_sealevel;temperature;humidity
5777;BME280;2914;42.668;23.346;2023-03-20T00:01:58;94828.23;;;9.71;61.33
5777;BME280;2914;42.668;23.346;2023-03-20T00:04:27;94825.27;;;9.48;62.08
5777;BME280;2914;42.668;23.346;2023-03-20T00:06:56;94816.81;;;9.39;62.38
5777;BME280;2914;42.668;23.346;2023-03-20T00:09:26;94809.59;;;9.47;62.34
5777;BME280;2914;42.668;23.346;2023-03-20T00:11:55;94813.36;;;9.39;62.63
5777;BME280;2914;42.668;23.346;2023-03-20T00:14:24;94809.54;;;9.37;62.85
5777;BME280;2914;42.668;23.346;2023-03-20T00:16:54;94813.68;;;9.45;62.26
5777;BME280;2914;42.668;23.346;2023-03-20T00:19:26;94814.86;;;9.47;62.30
5777;BME280;2914;42.668;23.346;2023-03-20T00:21:58;94811.64;;;9.43;62.42
5777;BME280;2914;42.668;23.346;2023-03-20T00:24:27;94807.27;;;9.32;63.32
5777;BME280;2914;42.668;23.346;2023-03-20T00:26:56;94802.33;;;9.39;62.97
5777;BME280;2914;42.668;23.346;2023-03-20T00:32:07;94782.30;;;9.27;64.31
5777;BME280;2914;42.668;23.346;2023-03-20T00:34:40;94798.16;;;9.37;63.31
5777;BME280;2914;42.668;23.346;2023-03-20T00:37:09;94800.75;;;9.42;63.37
5777;BME280;2914;42.668;23.346;2023-03-20T00:39:39;94797.84;;;9.51;62.25
5777;BME280;2914;42.668;23.346;2023-03-20T00:44:56;94790.99;;;9.54;62.21
5777;BME280;2914;42.668;23.346;2023-03-20T00:47:26;94791.98;;;9.47;62.02
5777;BME280;2914;42.668;23.346;2023-03-20T00:49:56;94793.53;;;9.50;62.07
5777;BME280;2914;42.668;23.346;2023-03-20T00:52:25;94799.75;;;9.49;62.15
5777;BME280;2914;42.668;23.346;2023-03-20T00:54:55;94796.70;;;9.44;62.33
5777;BME280;2914;42.668;23.346;2023-03-20T00:57:26;94795.02;;;9.43;62.63
5777;BME280;2914;42.668;23.346;2023-03-20T00:59:58;94790.23;;;9.21;62.38
5777;BME280;2914;42.668;23.346;2023-03-20T01:02:29;94788.75;;;9.07;63.13
5777;BME280;2914;42.668;23.346;2023-03-20T01:04:59;94776.86;;;8.59;65.69
5777;BME280;2914;42.668;23.346;2023-03-20T01:07:28;94765.03;;;8.59;65.69
5777;BME280;2914;42.668;23.346;2023-03-20T01:09:57;94788.53;;;8.78;65.89
5777;BME280;2914;42.668;23.346;2023-03-20T01:12:27;94781.84;;;8.74;66.16
5777;BME280;2914;42.668;23.346;2023-03-20T01:14:57;94781.84;;;8.74;66.16
5777;BME280;2914;42.668;23.346;2023-03-20T01:17:28;94772.95;;;8.86;65.84
5777;BME280;2914;42.668;23.346;2023-03-20T01:19:57;94772.95;;;8.86;65.84
5777;BME280;2914;42.668;23.346;2023-03-20T01:22:26;94756.94;;;8.83;65.53
5777;BME280;2914;42.668;23.346;2023-03-20T01:24:55;94760.00;;;8.94;65.39
5777;BME280;2914;42.668;23.346;2023-03-20T01:27:24;94763.95;;;8.94;64.85
5777;BME280;2914;42.668;23.346;2023-03-20T01:29:53;94763.95;;;8.94;64.85
5777;BME280;2914;42.668;23.346;2023-03-20T01:32:22;94767.30;;;8.91;65.12
5777;BME280;2914;42.668;23.346;2023-03-20T01:34:51;94772.80;;;8.93;64.85
5777;BME280;2914;42.668;23.346;2023-03-20T01:37:25;94774.23;;;8.92;64.84
5777;BME280;2914;42.668;23.346;2023-03-20T01:39:55;94769.70;;;8.88;64.74
5777;BME280;2914;42.668;23.346;2023-03-20T01:42:25;94774.98;;;8.82;65.20
5777;BME280;2914;42.668;23.346;2023-03-20T01:44:54;94767.73;;;8.69;65.79
5777;BME280;2914;42.668;23.346;2023-03-20T01:47:24;94782.59;;;8.64;66.16
5777;BME280;2914;42.668;23.346;2023-03-20T01:50:20;94780.67;;;8.61;67.20
5777;BME280;2914;42.668;23.346;2023-03-20T01:52:52;94780.67;;;8.61;67.20
5777;BME280;2914;42.668;23.346;2023-03-20T01:55:23;94778.67;;;8.59;66.38
5777;BME280;2914;42.668;23.346;2023-03-20T01:57:54;94785.97;;;8.44;67.79
5777;BME280;2914;42.668;23.346;2023-03-20T02:00:24;94782.80;;;8.18;68.95
5777;BME280;2914;42.668;23.346;2023-03-20T02:02:53;94782.91;;;8.22;69.39
5777;BME280;2914;42.668;23.346;2023-03-20T02:05:23;94779.76;;;8.33;68.54
5777;BME280;2914;42.668;23.346;2023-03-20T02:08:08;94784.92;;;8.46;67.13
5777;BME280;2914;42.668;23.346;2023-03-20T02:10:32;94784.92;;;8.46;67.13
5777;BME280;2914;42.668;23.346;2023-03-20T02:13:03;94773.88;;;8.58;65.04
5777;BME280;2914;42.668;23.346;2023-03-20T02:15:33;94764.92;;;8.55;65.50
5777;BME280;2914;42.668;23.346;2023-03-20T02:18:02;94767.55;;;8.55;65.99
5777;BME280;2914;42.668;23.346;2023-03-20T02:23:38;94772.20;;;8.63;65.79
5777;BME280;2914;42.668;23.346;2023-03-20T02:29:41;94768.10;;;8.70;65.02
5777;BME280;2914;42.668;23.346;2023-03-20T02:32:50;94776.02;;;8.64;64.92
5777;BME280;2914;42.668;23.346;2023-03-20T02:38:49;94779.53;;;8.48;65.74
5777;BME280;2914;42.668;23.346;2023-03-20T02:41:24;94779.53;;;8.48;65.74
5777;BME280;2914;42.668;23.346;2023-03-20T02:43:59;94783.46;;;8.42;66.05
5777;BME280;2914;42.668;23.346;2023-03-20T02:46:33;94765.55;;;8.30;66.25
5777;BME280;2914;42.668;23.346;2023-03-20T02:49:07;94770.37;;;8.14;67.18
5777;BME280;2914;42.668;23.346;2023-03-20T02:51:38;94770.37;;;8.14;67.18
5777;BME280;2914;42.668;23.346;2023-03-20T02:54:11;94765.82;;;8.10;67.70
5777;BME280;2914;42.668;23.346;2023-03-20T02:56:45;94750.32;;;8.02;68.21
5777;BME280;2914;42.668;23.346;2023-03-20T02:59:21;94756.87;;;8.07;68.60
5777;BME280;2914;42.668;23.346;2023-03-20T03:01:52;94756.87;;;8.07;68.60
5777;BME280;2914;42.668;23.346;2023-03-20T03:04:25;94756.18;;;8.05;68.66
5777;BME280;2914;42.668;23.346;2023-03-20T03:06:56;94762.86;;;8.09;68.36
5777;BME280;2914;42.668;23.346;2023-03-20T03:09:28;94744.58;;;8.02;68.40
5777;BME280;2914;42.668;23.346;2023-03-20T03:12:02;94748.64;;;8.01;68.26
5777;BME280;2914;42.668;23.346;2023-03-20T03:14:34;94763.32;;;8.09;67.65
5777;BME280;2914;42.668;23.346;2023-03-20T03:17:04;94763.32;;;8.09;67.65
5777;BME280;2914;42.668;23.346;2023-03-20T03:19:36;94759.49;;;8.13;72.72
5777;BME280;2914;42.668;23.346;2023-03-20T03:22:06;94767.95;;;8.28;69.42
5777;BME280;2914;42.668;23.346;2023-03-20T03:24:37;94762.34;;;8.21;68.65
5777;BME280;2914;42.668;23.346;2023-03-20T03:27:10;94761.66;;;8.13;68.40
5777;BME280;2914;42.668;23.346;2023-03-20T03:29:40;94767.88;;;8.07;68.63
5777;BME280;2914;42.668;23.346;2023-03-20T03:32:24;94767.88;;;8.07;68.63
5777;BME280;2914;42.668;23.346;2023-03-20T03:34:53;94770.27;;;8.04;69.04
5777;BME280;2914;42.668;23.346;2023-03-20T03:37:30;94769.08;;;8.03;69.14
5777;BME280;2914;42.668;23.346;2023-03-20T03:40:04;94768.11;;;7.98;69.67
5777;BME280;2914;42.668;23.346;2023-03-20T03:42:36;94768.11;;;7.98;69.67
5777;BME280;2914;42.668;23.346;2023-03-20T03:45:07;94764.89;;;8.00;69.41
5777;BME280;2914;42.668;23.346;2023-03-20T03:47:41;94773.47;;;8.02;68.80
5777;BME280;2914;42.668;23.346;2023-03-20T03:50:13;94766.92;;;7.96;68.67
5777;BME280;2914;42.668;23.346;2023-03-20T03:52:43;94769.80;;;7.82;69.54
5777;BME280;2914;42.668;23.346;2023-03-20T03:55:17;94770.39;;;7.74;70.46
5777;BME280;2914;42.668;23.346;2023-03-20T03:57:48;94770.39;;;7.74;70.46
5777;BME280;2914;42.668;23.346;2023-03-20T04:00:20;94760.27;;;7.64;70.89
5777;BME280;2914;42.668;23.346;2023-03-20T04:02:54;94756.45;;;7.62;71.01
5777;BME280;2914;42.668;23.346;2023-03-20T04:05:26;94759.17;;;7.55;71.80
5777;BME280;2914;42.668;23.346;2023-03-20T04:08:00;94760.84;;;7.56;71.26
5777;BME280;2914;42.668;23.346;2023-03-20T04:10:29;94753.46;;;7.50;71.48
5777;BME280;2914;42.668;23.346;2023-03-20T04:12:59;94753.46;;;7.50;71.48
5777;BME280;2914;42.668;23.346;2023-03-20T04:15:28;94749.16;;;7.49;71.96
5777;BME280;2914;42.668;23.346;2023-03-20T04:17:57;94744.85;;;7.54;71.18
5777;BME280;2914;42.668;23.346;2023-03-20T04:20:26;94747.84;;;7.55;71.51
5777;BME280;2914;42.668;23.346;2023-03-20T04:22:56;94749.52;;;7.61;70.37
5777;BME280;2914;42.668;23.346;2023-03-20T04:25:26;94749.52;;;7.61;70.37
5777;BME280;2914;42.668;23.346;2023-03-20T04:27:55;94745.09;;;7.51;70.02
5777;BME280;2914;42.668;23.346;2023-03-20T04:30:24;94750.59;;;7.42;70.41
5777;BME280;2914;42.668;23.346;2023-03-20T04:32:53;94750.59;;;7.42;70.41
5777;BME280;2914;42.668;23.346;2023-03-20T04:35:22;94745.59;;;7.50;70.04
5777;BME280;2914;42.668;23.346;2023-03-20T04:37:51;94746.53;;;7.49;69.76
5777;BME280;2914;42.668;23.346;2023-03-20T04:40:21;94754.52;;;7.64;68.94
5777;BME280;2914;42.668;23.346;2023-03-20T04:45:28;94758.83;;;7.54;67.97
5777;BME280;2914;42.668;23.346;2023-03-20T04:50:41;94758.09;;;7.69;67.98
5777;BME280;2914;42.668;23.346;2023-03-20T04:53:12;94768.59;;;7.69;68.04
5777;BME280;2914;42.668;23.346;2023-03-20T04:55:41;94769.91;;;7.69;68.31
5777;BME280;2914;42.668;23.346;2023-03-20T04:58:10;94773.88;;;7.75;68.38
5777;BME280;2914;42.668;23.346;2023-03-20T05:00:39;94784.71;;;7.81;69.99
5777;BME280;2914;42.668;23.346;2023-03-20T05:03:09;94784.73;;;7.93;70.13
5777;BME280;2914;42.668;23.346;2023-03-20T05:08:23;94783.17;;;7.90;69.43
5777;BME280;2914;42.668;23.346;2023-03-20T05:10:53;94782.09;;;7.76;70.06
5777;BME280;2914;42.668;23.346;2023-03-20T05:13:22;94785.69;;;7.80;69.62
5777;BME280;2914;42.668;23.346;2023-03-20T05:15:51;94785.69;;;7.80;69.62
5777;BME280;2914;42.668;23.346;2023-03-20T05:18:21;94780.30;;;7.93;69.56
5777;BME280;2914;42.668;23.346;2023-03-20T05:20:50;94780.30;;;7.93;69.56
5777;BME280;2914;42.668;23.346;2023-03-20T05:23:19;94791.64;;;8.11;68.94
5777;BME280;2914;42.668;23.346;2023-03-20T05:25:48;94782.80;;;8.18;68.94
5777;BME280;2914;42.668;23.346;2023-03-20T05:28:18;94782.80;;;8.18;68.94
5777;BME280;2914;42.668;23.346;2023-03-20T05:30:47;94794.97;;;8.24;67.88
5777;BME280;2914;42.668;23.346;2023-03-20T05:33:17;94800.21;;;8.30;67.87
5777;BME280;2914;42.668;23.346;2023-03-20T05:35:46;94800.21;;;8.30;67.87
5777;BME280;2914;42.668;23.346;2023-03-20T05:40:57;94793.19;;;8.13;69.24
5777;BME280;2914;42.668;23.346;2023-03-20T05:43:26;94793.19;;;8.13;69.24
5777;BME280;2914;42.668;23.346;2023-03-20T05:45:56;94803.44;;;8.22;70.68
5777;BME280;2914;42.668;23.346;2023-03-20T05:48:25;94803.44;;;8.22;70.68
5777;BME280;2914;42.668;23.346;2023-03-20T05:50:54;94797.55;;;8.41;70.11
5777;BME280;2914;42.668;23.346;2023-03-20T05:53:24;94803.98;;;8.60;68.01
5777;BME280;2914;42.668;23.346;2023-03-20T05:55:53;94808.61;;;8.73;67.14
5777;BME280;2914;42.668;23.346;2023-03-20T05:58:22;94817.33;;;8.79;67.49
5777;BME280;2914;42.668;23.346;2023-03-20T06:00:51;94816.34;;;8.48;67.81
5777;BME280;2914;42.668;23.346;2023-03-20T06:03:20;94808.11;;;8.07;69.60
5777;BME280;2914;42.668;23.346;2023-03-20T06:08:33;94806.08;;;8.17;70.02
5777;BME280;2914;42.668;23.346;2023-03-20T06:13:47;94805.30;;;8.60;69.44
5777;BME280;2914;42.668;23.346;2023-03-20T06:18:56;94794.27;;;9.04;95.48
5777;BME280;2914;42.668;23.346;2023-03-20T06:24:09;94816.09;;;9.16;73.28
5777;BME280;2914;42.668;23.346;2023-03-20T06:29:17;94820.39;;;9.44;69.97
5777;BME280;2914;42.668;23.346;2023-03-20T06:31:49;94818.92;;;9.24;69.04
5777;BME280;2914;42.668;23.346;2023-03-20T06:34:26;94815.63;;;9.16;69.24
5777;BME280;2914;42.668;23.346;2023-03-20T06:36:56;94819.60;;;9.05;69.56
5777;BME280;2914;42.668;23.346;2023-03-20T06:42:03;94817.66;;;9.13;70.05
5777;BME280;2914;42.668;23.346;2023-03-20T06:44:32;94817.89;;;9.15;69.64
5777;BME280;2914;42.668;23.346;2023-03-20T06:49:46;94821.13;;;9.40;68.24
5777;BME280;2914;42.668;23.346;2023-03-20T06:52:16;94822.89;;;9.45;68.39
5777;BME280;2914;42.668;23.346;2023-03-20T06:54:46;94806.83;;;9.85;87.10
5777;BME280;2914;42.668;23.346;2023-03-20T06:59:53;94803.08;;;9.88;67.60
5777;BME280;2914;42.668;23.346;2023-03-20T07:02:22;94801.16;;;9.90;66.69
5777;BME280;2914;42.668;23.346;2023-03-20T07:04:53;94800.06;;;9.77;67.02
5777;BME280;2914;42.668;23.346;2023-03-20T07:07:22;94801.06;;;10.01;66.73
5777;BME280;2914;42.668;23.346;2023-03-20T07:09:51;94803.05;;;10.34;66.39
5777;BME280;2914;42.668;23.346;2023-03-20T07:12:20;94802.88;;;10.66;65.29
5777;BME280;2914;42.668;23.346;2023-03-20T07:14:51;94800.62;;;10.97;64.50
5777;BME280;2914;42.668;23.346;2023-03-20T07:17:21;94805.55;;;11.25;64.00
5777;BME280;2914;42.668;23.346;2023-03-20T07:19:50;94804.88;;;11.47;62.86
5777;BME280;2914;42.668;23.346;2023-03-20T07:22:22;94803.78;;;11.73;62.81
5777;BME280;2914;42.668;23.346;2023-03-20T07:24:52;94800.20;;;11.88;62.01
5777;BME280;2914;42.668;23.346;2023-03-20T07:27:21;94794.24;;;11.62;59.75
5777;BME280;2914;42.668;23.346;2023-03-20T07:29:50;94790.63;;;11.53;60.81
5777;BME280;2914;42.668;23.346;2023-03-20T07:32:19;94793.74;;;11.63;59.95
5777;BME280;2914;42.668;23.346;2023-03-20T07:34:48;94800.88;;;11.76;60.21
5777;BME280;2914;42.668;23.346;2023-03-20T07:37:18;94799.13;;;12.04;61.17
5777;BME280;2914;42.668;23.346;2023-03-20T07:39:47;94802.48;;;12.34;59.49
5777;BME280;2914;42.668;23.346;2023-03-20T07:42:16;94799.74;;;12.40;56.98
5777;BME280;2914;42.668;23.346;2023-03-20T07:44:45;94796.13;;;12.41;57.32
5777;BME280;2914;42.668;23.346;2023-03-20T07:47:14;94795.40;;;12.49;57.60
5777;BME280;2914;42.668;23.346;2023-03-20T07:49:43;94801.36;;;12.51;57.03
5777;BME280;2914;42.668;23.346;2023-03-20T07:52:13;94802.37;;;12.54;56.40
5777;BME280;2914;42.668;23.346;2023-03-20T07:54:43;94801.10;;;12.58;56.03
5777;BME280;2914;42.668;23.346;2023-03-20T07:57:13;94796.51;;;12.60;57.20
5777;BME280;2914;42.668;23.346;2023-03-20T07:59:42;94802.49;;;12.80;57.20
5777;BME280;2914;42.668;23.346;2023-03-20T08:02:16;94802.03;;;12.99;56.19
5777;BME280;2914;42.668;23.346;2023-03-20T08:04:45;94805.09;;;13.26;55.31
5777;BME280;2914;42.668;23.346;2023-03-20T08:07:14;94801.72;;;13.02;55.32
5777;BME280;2914;42.668;23.346;2023-03-20T08:09:43;94795.59;;;13.19;55.31
5777;BME280;2914;42.668;23.346;2023-03-20T08:12:13;94799.74;;;13.36;54.95
5777;BME280;2914;42.668;23.346;2023-03-20T08:14:43;94800.00;;;13.47;54.93
5777;BME280;2914;42.668;23.346;2023-03-20T08:17:12;94801.54;;;13.53;54.55
5777;BME280;2914;42.668;23.346;2023-03-20T08:19:41;94793.20;;;13.70;54.57
5777;BME280;2914;42.668;23.346;2023-03-20T08:22:10;94796.12;;;13.85;53.44
5777;BME280;2914;42.668;23.346;2023-03-20T08:24:39;94795.11;;;13.82;53.63
5777;BME280;2914;42.668;23.346;2023-03-20T08:27:10;94801.55;;;13.80;53.22
5777;BME280;2914;42.668;23.346;2023-03-20T08:32:18;94813.05;;;13.66;53.28
5777;BME280;2914;42.668;23.346;2023-03-20T08:34:47;94805.16;;;13.74;53.74
5777;BME280;2914;42.668;23.346;2023-03-20T08:37:16;94805.91;;;13.85;52.89
5777;BME280;2914;42.668;23.346;2023-03-20T08:39:46;94805.93;;;13.89;52.71
5777;BME280;2914;42.668;23.346;2023-03-20T08:42:15;94807.07;;;13.86;52.42
5777;BME280;2914;42.668;23.346;2023-03-20T08:44:45;94793.75;;;14.04;52.58
5777;BME280;2914;42.668;23.346;2023-03-20T08:47:14;94793.61;;;14.10;52.71
5777;BME280;2914;42.668;23.346;2023-03-20T08:49:43;94793.24;;;13.34;55.17
5777;BME280;2914;42.668;23.346;2023-03-20T08:52:12;94794.28;;;13.37;55.09
5777;BME280;2914;42.668;23.346;2023-03-20T08:54:42;94787.65;;;13.19;54.54
5777;BME280;2914;42.668;23.346;2023-03-20T08:59:55;94796.66;;;13.09;55.06
5777;BME280;2914;42.668;23.346;2023-03-20T09:02:25;94787.61;;;12.79;55.74
5777;BME280;2914;42.668;23.346;2023-03-20T09:07:38;94786.02;;;13.22;55.33
5777;BME280;2914;42.668;23.346;2023-03-20T09:10:11;94791.32;;;13.40;54.13
5777;BME280;2914;42.668;23.346;2023-03-20T09:12:40;94778.10;;;13.45;53.54
5777;BME280;2914;42.668;23.346;2023-03-20T09:15:12;94779.27;;;13.46;53.53
5777;BME280;2914;42.668;23.346;2023-03-20T09:17:41;94778.75;;;13.65;53.19
5777;BME280;2914;42.668;23.346;2023-03-20T09:20:11;94773.98;;;13.68;52.47
5777;BME280;2914;42.668;23.346;2023-03-20T09:22:41;94778.80;;;13.47;53.57
5777;BME280;2914;42.668;23.346;2023-03-20T09:25:11;94773.81;;;13.44;53.00
5777;BME280;2914;42.668;23.346;2023-03-20T09:27:41;94772.67;;;13.50;53.31
5777;BME280;2914;42.668;23.346;2023-03-20T09:30:12;94761.50;;;13.61;52.85
5777;BME280;2914;42.668;23.346;2023-03-20T09:32:41;94760.99;;;13.61;52.63
5777;BME280;2914;42.668;23.346;2023-03-20T09:35:11;94766.93;;;13.55;52.81
5777;BME280;2914;42.668;23.346;2023-03-20T09:37:40;94759.01;;;13.59;52.52
5777;BME280;2914;42.668;23.346;2023-03-20T09:43:06;94747.53;;;13.77;52.34
5777;BME280;2914;42.668;23.346;2023-03-20T09:45:42;94744.23;;;13.83;52.25
5777;BME280;2914;42.668;23.346;2023-03-20T09:50:54;94727.86;;;14.26;52.25
5777;BME280;2914;42.668;23.346;2023-03-20T09:53:28;94727.37;;;14.31;51.11
5777;BME280;2914;42.668;23.346;2023-03-20T09:55:58;94722.27;;;14.41;51.54
5777;BME280;2914;42.668;23.346;2023-03-20T09:58:30;94712.15;;;14.49;50.84
5777;BME280;2914;42.668;23.346;2023-03-20T10:01:01;94708.62;;;14.28;50.62
5777;BME280;2914;42.668;23.346;2023-03-20T10:03:38;94701.44;;;14.16;50.64
5777;BME280;2914;42.668;23.346;2023-03-20T10:06:11;94703.47;;;14.22;50.71
5777;BME280;2914;42.668;23.346;2023-03-20T10:08:41;94694.36;;;14.25;50.49
5777;BME280;2914;42.668;23.346;2023-03-20T10:11:19;94687.71;;;14.21;50.39
5777;BME280;2914;42.668;23.346;2023-03-20T10:13:59;94682.58;;;14.23;50.60
5777;BME280;2914;42.668;23.346;2023-03-20T10:16:37;94675.97;;;14.28;50.71
5777;BME280;2914;42.668;23.346;2023-03-20T10:19:11;94676.98;;;14.39;50.35
5777;BME280;2914;42.668;23.346;2023-03-20T10:21:44;94682.47;;;14.46;50.75
5777;BME280;2914;42.668;23.346;2023-03-20T10:24:16;94672.84;;;14.49;50.33
5777;BME280;2914;42.668;23.346;2023-03-20T10:26:49;94669.69;;;14.49;49.98
5777;BME280;2914;42.668;23.346;2023-03-20T10:29:25;94670.41;;;14.64;50.23
5777;BME280;2914;42.668;23.346;2023-03-20T10:31:58;94667.42;;;14.67;49.57
5777;BME280;2914;42.668;23.346;2023-03-20T10:34:37;94662.11;;;14.67;49.64
5777;BME280;2914;42.668;23.346;2023-03-20T10:37:13;94657.49;;;14.77;49.52
5777;BME280;2914;42.668;23.346;2023-03-20T10:39:50;94653.98;;;14.81;49.23
5777;BME280;2914;42.668;23.346;2023-03-20T10:42:22;94649.02;;;14.86;49.16
5777;BME280;2914;42.668;23.346;2023-03-20T10:44:54;94643.70;;;14.94;48.64
5777;BME280;2914;42.668;23.346;2023-03-20T10:50:06;94638.56;;;15.05;48.67
5777;BME280;2914;42.668;23.346;2023-03-20T10:52:39;94636.55;;;15.07;48.66
5777;BME280;2914;42.668;23.346;2023-03-20T10:57:59;94627.08;;;15.25;48.15
5777;BME280;2914;42.668;23.346;2023-03-20T11:00:28;94623.58;;;15.24;48.11
5777;BME280;2914;42.668;23.346;2023-03-20T11:02:57;94622.41;;;15.31;47.91
5777;BME280;2914;42.668;23.346;2023-03-20T11:08:15;94613.02;;;15.60;47.07
5777;BME280;2914;42.668;23.346;2023-03-20T11:10:44;94618.48;;;15.67;46.81
5777;BME280;2914;42.668;23.346;2023-03-20T11:13:20;94612.47;;;15.73;46.60
5777;BME280;2914;42.668;23.346;2023-03-20T11:15:46;94606.84;;;15.80;46.34
5777;BME280;2914;42.668;23.346;2023-03-20T11:18:15;94602.65;;;15.86;46.32
5777;BME280;2914;42.668;23.346;2023-03-20T11:20:48;94595.94;;;15.98;46.72
5777;BME280;2914;42.668;23.346;2023-03-20T11:23:18;94587.20;;;16.13;46.00
5777;BME280;2914;42.668;23.346;2023-03-20T11:25:51;94585.69;;;16.14;45.25
5777;BME280;2914;42.668;23.346;2023-03-20T11:28:25;94580.52;;;16.17;45.45
5777;BME280;2914;42.668;23.346;2023-03-20T11:30:59;94579.98;;;16.25;44.76
5777;BME280;2914;42.668;23.346;2023-03-20T11:33:31;94575.48;;;16.26;44.20
5777;BME280;2914;42.668;23.346;2023-03-20T11:36:01;94565.47;;;16.32;43.94
5777;BME280;2914;42.668;23.346;2023-03-20T11:38:31;94559.97;;;16.34;43.64
5777;BME280;2914;42.668;23.346;2023-03-20T11:43:42;94553.34;;;16.53;41.99
5777;BME280;2914;42.668;23.346;2023-03-20T11:46:12;94546.14;;;16.57;41.80
5777;BME280;2914;42.668;23.346;2023-03-20T11:48:43;94545.59;;;16.62;41.87
5777;BME280;2914;42.668;23.346;2023-03-20T11:51:15;94536.05;;;16.68;41.45
5777;BME280;2914;42.668;23.346;2023-03-20T11:53:57;94528.91;;;16.68;41.01
5777;BME280;2914;42.668;23.346;2023-03-20T11:56:28;94526.31;;;16.79;40.91
5777;BME280;2914;42.668;23.346;2023-03-20T11:59:02;94518.55;;;16.88;40.04
5777;BME280;2914;42.668;23.346;2023-03-20T12:01:39;94516.02;;;16.95;39.84
5777;BME280;2914;42.668;23.346;2023-03-20T12:04:13;94514.16;;;17.00;39.17
5777;BME280;2914;42.668;23.346;2023-03-20T12:06:46;94510.26;;;17.06;38.28
5777;BME280;2914;42.668;23.346;2023-03-20T12:09:30;94507.61;;;17.17;37.85
5777;BME280;2914;42.668;23.346;2023-03-20T12:12:01;94499.23;;;17.24;37.10
5777;BME280;2914;42.668;23.346;2023-03-20T12:14:37;94498.28;;;17.32;36.93
5777;BME280;2914;42.668;23.346;2023-03-20T12:17:19;94498.14;;;17.29;37.46
5777;BME280;2914;42.668;23.346;2023-03-20T12:19:49;94496.41;;;17.37;37.07
5777;BME280;2914;42.668;23.346;2023-03-20T12:22:23;94490.08;;;17.49;37.09
5777;BME280;2914;42.668;23.346;2023-03-20T12:24:57;94483.12;;;17.58;36.63
5777;BME280;2914;42.668;23.346;2023-03-20T12:27:29;94481.57;;;17.64;35.83
5777;BME280;2914;42.668;23.346;2023-03-20T12:30:03;94476.80;;;17.70;35.51
5777;BME280;2914;42.668;23.346;2023-03-20T12:32:37;94478.47;;;17.71;35.47
5777;BME280;2914;42.668;23.346;2023-03-20T12:37:47;94476.19;;;17.90;36.41
5777;BME280;2914;42.668;23.346;2023-03-20T12:40:18;94467.53;;;17.92;34.79
5777;BME280;2914;42.668;23.346;2023-03-20T12:45:37;94465.50;;;18.05;34.40
5777;BME280;2914;42.668;23.346;2023-03-20T12:48:35;94463.86;;;17.93;34.23
5777;BME280;2914;42.668;23.346;2023-03-20T12:51:08;94459.02;;;18.03;33.19
5777;BME280;2914;42.668;23.346;2023-03-20T12:53:45;94448.60;;;18.08;33.55
5777;BME280;2914;42.668;23.346;2023-03-20T12:56:21;94446.81;;;18.16;33.26
5777;BME280;2914;42.668;23.346;2023-03-20T12:58:53;94447.20;;;18.12;33.13
5777;BME280;2914;42.668;23.346;2023-03-20T13:04:20;94440.53;;;18.23;31.84
5777;BME280;2914;42.668;23.346;2023-03-20T13:06:57;94426.59;;;18.17;31.58
5777;BME280;2914;42.668;23.346;2023-03-20T13:12:41;94422.39;;;18.29;31.18
5777;BME280;2914;42.668;23.346;2023-03-20T13:15:28;94424.52;;;18.23;31.02
5777;BME280;2914;42.668;23.346;2023-03-20T13:18:02;94420.73;;;18.28;30.88
5777;BME280;2914;42.668;23.346;2023-03-20T13:20:32;94415.52;;;18.31;31.88
5777;BME280;2914;42.668;23.346;2023-03-20T13:23:11;94413.70;;;18.31;31.72
5777;BME280;2914;42.668;23.346;2023-03-20T13:25:49;94409.89;;;18.30;31.79
5777;BME280;2914;42.668;23.346;2023-03-20T13:28:21;94407.83;;;18.32;31.93
5777;BME280;2914;42.668;23.346;2023-03-20T13:30:54;94400.08;;;18.37;31.48
5777;BME280;2914;42.668;23.346;2023-03-20T13:33:35;94400.81;;;18.42;31.70
5777;BME280;2914;42.668;23.346;2023-03-20T13:36:08;94398.13;;;18.53;32.14
5777;BME280;2914;42.668;23.346;2023-03-20T13:38:40;94395.33;;;18.50;31.73
5777;BME280;2914;42.668;23.346;2023-03-20T13:41:12;94397.19;;;18.50;31.22
5777;BME280;2914;42.668;23.346;2023-03-20T13:43:45;94395.85;;;18.50;31.13
5777;BME280;2914;42.668;23.346;2023-03-20T13:46:17;94382.98;;;18.49;31.14
5777;BME280;2914;42.668;23.346;2023-03-20T13:48:47;94381.23;;;18.45;30.91
5777;BME280;2914;42.668;23.346;2023-03-20T13:51:23;94382.57;;;18.45;31.24
5777;BME280;2914;42.668;23.346;2023-03-20T13:56:40;94378.17;;;18.48;31.25
5777;BME280;2914;42.668;23.346;2023-03-20T14:02:20;94375.50;;;18.48;31.65
5777;BME280;2914;42.668;23.346;2023-03-20T14:07:38;94372.16;;;18.40;32.46
5777;BME280;2914;42.668;23.346;2023-03-20T14:10:38;94368.97;;;18.40;32.25
5777;BME280;2914;42.668;23.346;2023-03-20T14:13:13;94364.57;;;18.43;32.15
5777;BME280;2914;42.668;23.346;2023-03-20T14:15:56;94362.42;;;18.43;31.44
5777;BME280;2914;42.668;23.346;2023-03-20T14:18:26;94359.95;;;18.41;31.32
5777;BME280;2914;42.668;23.346;2023-03-20T14:20:57;94353.59;;;18.42;31.51
5777;BME280;2914;42.668;23.346;2023-03-20T14:23:37;94356.03;;;18.55;30.93
5777;BME280;2914;42.668;23.346;2023-03-20T14:26:19;94352.77;;;18.59;30.59
5777;BME280;2914;42.668;23.346;2023-03-20T14:28:58;94345.89;;;18.61;30.70
5777;BME280;2914;42.668;23.346;2023-03-20T14:31:31;94345.27;;;18.59;30.87
5777;BME280;2914;42.668;23.346;2023-03-20T14:36:58;94344.87;;;18.62;30.93
5777;BME280;2914;42.668;23.346;2023-03-20T14:39:35;94344.63;;;18.57;30.88
5777;BME280;2914;42.668;23.346;2023-03-20T14:42:16;94336.50;;;18.54;31.05
5777;BME280;2914;42.668;23.346;2023-03-20T14:47:33;94337.47;;;18.64;30.87
5777;BME280;2914;42.668;23.346;2023-03-20T14:50:08;94335.80;;;18.56;30.68
5777;BME280;2914;42.668;23.346;2023-03-20T14:52:48;94335.80;;;18.56;30.00
5777;BME280;2914;42.668;23.346;2023-03-20T14:55:46;94335.80;;;18.56;29.69
5777;BME280;2914;42.668;23.346;2023-03-20T15:01:44;94335.61;;;18.58;29.71
5777;BME280;2914;42.668;23.346;2023-03-20T15:04:34;94333.09;;;18.50;29.46
5777;BME280;2914;42.668;23.346;2023-03-20T15:07:12;94334.84;;;18.53;29.19
5777;BME280;2914;42.668;23.346;2023-03-20T15:09:43;94329.28;;;18.48;29.32
5777;BME280;2914;42.668;23.346;2023-03-20T15:17:39;94328.15;;;18.46;29.36
5777;BME280;2914;42.668;23.346;2023-03-20T15:22:52;94337.25;;;18.41;29.54
5777;BME280;2914;42.668;23.346;2023-03-20T15:25:23;94329.39;;;18.33;29.54
5777;BME280;2914;42.668;23.346;2023-03-20T15:27:53;94328.75;;;18.31;29.72
5777;BME280;2914;42.668;23.346;2023-03-20T15:30:23;94325.86;;;18.26;29.80